createdAt,value
2019-05-05T00:02:05.196Z,78.60
2019-05-05T00:04:56.687Z,78.80
2019-05-05T00:07:31.583Z,78.70
2019-05-05T00:10:01.187Z,78.80
2019-05-05T00:12:55.121Z,78.30
2019-05-05T00:15:48.592Z,77.80
2019-05-05T00:18:21.167Z,77.50
2019-05-05T00:20:50.979Z,77.50
2019-05-05T00:23:27.221Z,77.70
2019-05-05T00:25:56.760Z,78.00
2019-05-05T00:28:26.303Z,77.90
2019-05-05T00:30:55.835Z,78.00
2019-05-05T00:33:25.399Z,78.10
2019-05-05T00:35:54.951Z,78.00
2019-05-05T00:38:24.979Z,77.90
2019-05-05T00:40:55.101Z,77.40
2019-05-05T00:43:25.333Z,77.70
2019-05-05T00:45:59.080Z,77.70
2019-05-05T00:48:35.102Z,77.80
2019-05-05T00:51:04.789Z,78.00
2019-05-05T00:53:35.249Z,78.00
2019-05-05T00:56:05.215Z,78.00
2019-05-05T00:58:36.651Z,78.00
2019-05-05T01:01:18.407Z,78.30
2019-05-05T01:03:50.454Z,78.40
2019-05-05T01:06:22.105Z,78.80
2019-05-05T01:08:51.645Z,78.80
2019-05-05T01:11:21.368Z,79.10
2019-05-05T01:13:50.938Z,79.70
2019-05-05T01:16:20.585Z,79.70
2019-05-05T01:18:50.240Z,79.80
2019-05-05T01:21:21.942Z,79.70
2019-05-05T01:23:54.629Z,79.80
2019-05-05T01:26:25.011Z,79.70
2019-05-05T01:28:56.305Z,79.60
2019-05-05T01:31:27.093Z,79.90
2019-05-05T01:34:11.538Z,80.00
2019-05-05T01:36:41.206Z,80.00
2019-05-05T01:39:40.715Z,80.00
2019-05-05T01:42:14.679Z,80.10
2019-05-05T01:44:44.795Z,80.20
2019-05-05T01:47:15.699Z,80.50
2019-05-05T01:49:45.534Z,80.90
2019-05-05T01:52:15.327Z,80.80
2019-05-05T01:54:44.853Z,80.80
2019-05-05T01:57:14.962Z,80.50
2019-05-05T01:59:44.929Z,80.30
2019-05-05T02:02:15.618Z,80.50
2019-05-05T02:04:45.545Z,80.70
2019-05-05T02:07:16.255Z,80.40
2019-05-05T02:09:45.760Z,80.00
2019-05-05T02:12:19.247Z,80.00
2019-05-05T02:14:48.855Z,80.10
2019-05-05T02:17:18.416Z,80.00
2019-05-05T02:20:02.878Z,79.90
2019-05-05T02:22:32.484Z,79.90
2019-05-05T02:25:04.352Z,79.70
2019-05-05T02:27:34.902Z,79.70
2019-05-05T02:30:46.617Z,79.70
2019-05-05T02:33:16.479Z,80.50
2019-05-05T02:35:47.004Z,81.00
2019-05-05T02:38:16.701Z,81.10
2019-05-05T02:40:46.375Z,80.70
2019-05-05T02:43:16.156Z,80.80
2019-05-05T02:45:55.189Z,81.40
2019-05-05T02:48:25.159Z,81.30
2019-05-05T02:51:01.287Z,81.10
2019-05-05T02:53:34.010Z,80.60
2019-05-05T02:56:05.501Z,80.90
2019-05-05T02:58:36.010Z,81.00
2019-05-05T03:01:23.927Z,81.40
2019-05-05T03:03:54.608Z,81.50
2019-05-05T03:06:24.229Z,81.10
2019-05-05T03:08:54.384Z,81.20
2019-05-05T03:11:24.850Z,81.50
2019-05-05T03:13:54.490Z,81.30
2019-05-05T03:16:25.801Z,80.90
2019-05-05T03:18:55.332Z,80.80
2019-05-05T03:21:24.935Z,81.00
2019-05-05T03:23:54.842Z,80.50
2019-05-05T03:26:24.579Z,80.30
2019-05-05T03:28:56.935Z,80.50
2019-05-05T03:31:26.776Z,80.50
2019-05-05T03:33:56.580Z,80.30
2019-05-05T03:36:26.682Z,79.70
2019-05-05T03:38:57.635Z,78.90
2019-05-05T03:41:38.640Z,78.90
2019-05-05T03:44:18.639Z,78.80
2019-05-05T03:46:48.145Z,79.00
2019-05-05T03:49:17.996Z,79.10
2019-05-05T03:51:47.571Z,78.60
2019-05-05T03:54:17.134Z,78.50
2019-05-05T03:56:46.737Z,78.30
2019-05-05T03:59:16.318Z,78.00
2019-05-05T04:01:54.725Z,77.90
2019-05-05T04:04:25.479Z,77.20
2019-05-05T04:06:55.165Z,76.80
2019-05-05T04:09:24.748Z,76.80
2019-05-05T04:11:54.322Z,76.40
2019-05-05T04:14:25.045Z,76.50
2019-05-05T04:17:13.953Z,76.50
2019-05-05T04:19:45.549Z,76.30
2019-05-05T04:22:18.466Z,76.00
2019-05-05T04:24:48.007Z,76.20
2019-05-05T04:27:17.699Z,76.10
2019-05-05T04:29:47.459Z,76.50
2019-05-05T04:32:17.027Z,77.00
2019-05-05T04:34:46.548Z,76.90
2019-05-05T04:37:16.079Z,76.90
2019-05-05T04:39:45.719Z,76.50
2019-05-05T04:42:15.255Z,76.50
2019-05-05T04:44:45.077Z,76.50
2019-05-05T04:47:20.614Z,76.30
2019-05-05T04:49:56.775Z,76.00
2019-05-05T04:52:26.575Z,75.90
2019-05-05T04:54:56.177Z,76.10
2019-05-05T04:57:25.659Z,75.90
2019-05-05T04:59:55.215Z,77.00
2019-05-05T05:02:35.159Z,76.00
2019-05-05T05:05:09.735Z,75.90
2019-05-05T05:07:39.303Z,75.90
2019-05-05T05:10:08.875Z,75.60
2019-05-05T05:12:38.439Z,75.60
2019-05-05T05:15:08.104Z,74.90
2019-05-05T05:17:44.360Z,74.90
2019-05-05T05:20:14.232Z,74.90
2019-05-05T05:22:44.084Z,75.20
2019-05-05T05:25:13.765Z,75.00
2019-05-05T05:27:45.368Z,75.20
2019-05-05T05:30:19.687Z,74.20
2019-05-05T05:32:49.420Z,74.10
2019-05-05T05:35:19.950Z,74.90
2019-05-05T05:37:49.489Z,75.00
2019-05-05T05:40:24.994Z,74.60
2019-05-05T05:42:58.609Z,75.00
2019-05-05T05:45:54.246Z,75.00
2019-05-05T05:48:53.940Z,74.10
2019-05-05T05:54:19.067Z,74.30
2019-05-05T05:56:48.846Z,74.70
2019-05-05T05:59:19.133Z,75.10
2019-05-05T06:01:48.775Z,75.40
2019-05-05T06:04:37.087Z,75.50
2019-05-05T06:07:21.686Z,75.60
2019-05-05T06:10:03.747Z,75.60
2019-05-05T06:12:54.839Z,75.50
2019-05-05T06:15:28.094Z,75.60
2019-05-05T06:17:57.697Z,75.40
2019-05-05T06:20:30.439Z,75.40
2019-05-05T06:23:00.278Z,75.70
2019-05-05T06:25:29.894Z,75.50
2019-05-05T06:27:59.715Z,74.50
2019-05-05T06:30:29.659Z,74.50
2019-05-05T06:32:59.302Z,74.60
2019-05-05T06:35:29.028Z,74.40
2019-05-05T06:37:58.604Z,74.40
2019-05-05T06:40:54.920Z,73.50
2019-05-05T06:44:03.687Z,73.40
2019-05-05T06:46:53.817Z,73.10
2019-05-05T06:49:23.844Z,73.10
2019-05-05T06:51:54.856Z,72.50
2019-05-05T06:54:24.574Z,72.40
2019-05-05T06:56:54.284Z,72.00
2019-05-05T06:59:24.498Z,71.90
2019-05-05T07:01:54.206Z,71.60
2019-05-05T07:04:24.535Z,71.20
2019-05-05T07:06:57.074Z,70.60
2019-05-05T07:09:25.720Z,70.60
2019-05-05T07:11:55.316Z,70.80
2019-05-05T07:14:24.983Z,70.90
2019-05-05T07:16:54.546Z,70.70
2019-05-05T07:19:24.206Z,77.10
2019-05-05T07:21:54.028Z,72.70
2019-05-05T07:24:24.047Z,70.60
2019-05-05T07:26:55.767Z,71.00
2019-05-05T07:29:25.351Z,70.10
2019-05-05T07:31:55.015Z,69.40
2019-05-05T07:34:45.640Z,69.40
2019-05-05T07:37:15.705Z,69.20
2019-05-05T07:39:45.451Z,69.30
2019-05-05T07:42:15.093Z,69.30
2019-05-05T07:44:44.723Z,69.20
2019-05-05T07:47:14.628Z,68.50
2019-05-05T07:49:44.315Z,68.60
2019-05-05T07:52:15.099Z,68.40
2019-05-05T07:54:44.044Z,67.10
2019-05-05T07:57:14.635Z,67.40
2019-05-05T07:59:45.341Z,68.30
2019-05-05T08:02:14.904Z,69.00
2019-05-05T08:04:44.567Z,69.70
2019-05-05T08:07:14.819Z,69.30
2019-05-05T08:09:44.663Z,68.50
2019-05-05T08:12:17.363Z,68.50
2019-05-05T08:14:47.032Z,68.40
2019-05-05T08:17:25.740Z,68.40
2019-05-05T08:20:14.299Z,68.30
2019-05-05T08:22:49.455Z,68.30
2019-05-05T08:25:40.550Z,69.30
2019-05-05T08:28:23.685Z,69.00
2019-05-05T08:31:18.443Z,68.80
2019-05-05T08:33:48.764Z,75.50
2019-05-05T08:36:20.085Z,69.80
2019-05-05T08:38:50.275Z,67.60
2019-05-05T08:41:24.627Z,67.70
2019-05-05T08:43:54.378Z,68.50
2019-05-05T08:46:24.782Z,67.80
2019-05-05T08:48:54.333Z,68.10
2019-05-05T08:51:24.659Z,68.30
2019-05-05T08:53:55.757Z,69.20
2019-05-05T08:56:25.781Z,68.00
2019-05-05T08:58:55.327Z,68.00
2019-05-05T09:01:24.875Z,67.60
2019-05-05T09:03:54.527Z,68.10
2019-05-05T09:06:24.239Z,68.30
2019-05-05T09:08:55.803Z,67.40
2019-05-05T09:11:25.355Z,67.70
2019-05-05T09:13:54.895Z,67.70
2019-05-05T09:16:24.515Z,69.20
2019-05-05T09:19:00.000Z,70.80
2019-05-05T09:21:29.612Z,68.60
2019-05-05T09:24:16.271Z,68.40
2019-05-05T09:26:58.085Z,68.70
2019-05-05T09:29:34.829Z,67.50
2019-05-05T09:32:04.520Z,65.70
2019-05-05T09:34:34.192Z,64.10
2019-05-05T09:37:04.924Z,64.00
2019-05-05T09:39:34.659Z,64.50
2019-05-05T09:42:04.318Z,62.90
2019-05-05T09:44:35.000Z,62.60
2019-05-05T09:47:06.651Z,64.80
2019-05-05T09:49:36.235Z,64.00
2019-05-05T09:52:05.871Z,64.30
2019-05-05T09:54:36.275Z,65.00
2019-05-05T09:57:07.740Z,63.80
2019-05-05T09:59:40.210Z,63.50
2019-05-05T10:02:09.507Z,64.20
2019-05-05T10:04:39.187Z,64.90
2019-05-05T10:07:08.763Z,63.60
2019-05-05T10:09:38.374Z,63.50
2019-05-05T10:12:08.008Z,62.90
2019-05-05T10:14:37.566Z,61.60
2019-05-05T10:17:07.128Z,62.00
2019-05-05T10:19:36.740Z,62.20
2019-05-05T10:22:06.301Z,61.20
2019-05-05T10:24:41.504Z,60.70
2019-05-05T10:27:11.608Z,60.60
2019-05-05T10:29:41.234Z,62.20
2019-05-05T10:32:10.908Z,63.40
2019-05-05T10:34:45.275Z,63.60
2019-05-05T10:37:14.843Z,63.20
2019-05-05T10:39:49.553Z,62.60
2019-05-05T10:42:20.907Z,60.80
2019-05-05T10:44:50.932Z,59.20
2019-05-05T10:47:21.147Z,58.10
2019-05-05T10:49:51.360Z,58.00
2019-05-05T10:52:20.984Z,56.70
2019-05-05T10:54:50.700Z,57.20
2019-05-05T10:57:20.248Z,57.60
2019-05-05T10:59:49.794Z,56.00
2019-05-05T11:02:21.630Z,55.90
2019-05-05T11:04:51.331Z,56.30
2019-05-05T11:07:20.956Z,56.30
2019-05-05T11:09:51.261Z,56.10
2019-05-05T11:12:21.698Z,56.80
2019-05-05T11:14:51.396Z,57.20
2019-05-05T11:17:20.943Z,56.70
2019-05-05T11:19:51.135Z,56.20
2019-05-05T11:22:21.132Z,56.20
2019-05-05T11:24:58.238Z,56.10
2019-05-05T11:27:23.997Z,57.20
2019-05-05T11:30:30.636Z,57.10
2019-05-05T11:33:18.207Z,58.10
2019-05-05T11:36:13.606Z,62.30
2019-05-05T11:38:44.640Z,65.10
2019-05-05T11:41:14.614Z,66.60
2019-05-05T11:43:44.359Z,67.50
2019-05-05T11:46:14.254Z,66.90
2019-05-05T11:48:44.107Z,66.80
2019-05-05T11:51:15.056Z,66.30
2019-05-05T11:53:44.955Z,66.70
2019-05-05T11:56:14.669Z,66.40
2019-05-05T11:58:44.485Z,66.10
2019-05-05T12:01:14.459Z,67.10
2019-05-05T12:03:46.116Z,65.30
2019-05-05T12:06:15.974Z,63.10
2019-05-05T12:08:46.026Z,63.30
2019-05-05T12:11:16.030Z,63.60
2019-05-05T12:13:47.247Z,62.10
2019-05-05T12:16:30.146Z,60.70
2019-05-05T12:19:00.465Z,60.80
2019-05-05T12:21:30.094Z,61.90
2019-05-05T12:24:03.819Z,62.50
2019-05-05T12:26:50.999Z,62.10
2019-05-05T12:29:24.656Z,61.50
2019-05-05T12:31:54.703Z,60.60
2019-05-05T12:34:24.427Z,60.10
2019-05-05T12:36:54.180Z,58.70
2019-05-05T12:39:24.783Z,58.00
2019-05-05T12:41:54.481Z,58.70
2019-05-05T12:44:29.010Z,59.20
2019-05-05T12:47:16.356Z,59.10
2019-05-05T12:49:46.064Z,57.70
2019-05-05T12:52:15.873Z,58.30
2019-05-05T12:54:45.813Z,58.30
2019-05-05T12:57:15.492Z,58.00
2019-05-05T12:59:47.186Z,57.50
2019-05-05T13:02:17.050Z,56.20
2019-05-05T13:04:46.590Z,55.60
2019-05-05T13:07:16.212Z,56.70
2019-05-05T13:09:45.917Z,56.50
2019-05-05T13:12:15.881Z,54.60
2019-05-05T13:14:46.005Z,54.90
2019-05-05T13:17:16.151Z,55.80
2019-05-05T13:19:52.945Z,55.70
2019-05-05T13:22:39.908Z,55.60
2019-05-05T13:25:27.258Z,53.80
2019-05-05T13:27:57.394Z,53.20
2019-05-05T13:30:28.087Z,54.20
2019-05-05T13:32:57.664Z,54.20
2019-05-05T13:35:27.215Z,55.20
2019-05-05T13:37:56.775Z,56.10
2019-05-05T13:40:26.553Z,56.10
2019-05-05T13:42:56.239Z,56.20
2019-05-05T13:45:47.977Z,56.20
2019-05-05T13:48:17.664Z,57.20
2019-05-05T13:50:49.599Z,57.60
2019-05-05T13:53:19.299Z,58.30
2019-05-05T13:55:48.845Z,57.50
2019-05-05T13:58:18.482Z,57.40
2019-05-05T14:00:48.186Z,58.30
2019-05-05T14:03:18.035Z,56.40
2019-05-05T14:05:48.158Z,60.40
2019-05-05T14:08:19.892Z,57.00
2019-05-05T14:10:49.609Z,53.80
2019-05-05T14:13:19.182Z,52.20
2019-05-05T14:15:48.930Z,51.70
2019-05-05T14:18:18.741Z,51.60
2019-05-05T14:20:50.423Z,52.20
2019-05-05T14:23:20.311Z,52.20
2019-05-05T14:25:51.074Z,52.10
2019-05-05T14:28:20.771Z,52.40
2019-05-05T14:31:14.134Z,52.10
2019-05-05T14:33:54.195Z,53.20
2019-05-05T14:37:24.835Z,53.30
2019-05-05T14:39:56.059Z,54.00
2019-05-05T14:42:31.815Z,54.00
2019-05-05T14:45:09.238Z,53.20
2019-05-05T14:51:05.427Z,54.50
2019-05-05T14:53:36.292Z,54.70
2019-05-05T14:56:08.893Z,55.10
2019-05-05T14:58:39.343Z,54.60
2019-05-05T15:01:09.081Z,54.80
2019-05-05T15:04:05.880Z,54.90
2019-05-05T15:06:40.811Z,53.70
2019-05-05T15:09:28.135Z,54.50
2019-05-05T15:12:20.155Z,53.90
2019-05-05T15:14:49.924Z,53.20
2019-05-05T15:17:19.685Z,52.90
2019-05-05T15:19:49.562Z,52.90
2019-05-05T15:22:19.633Z,52.00
2019-05-05T15:24:50.894Z,51.90
2019-05-05T15:27:26.130Z,52.20
2019-05-05T15:29:56.454Z,50.70
2019-05-05T15:32:26.648Z,51.90
2019-05-05T15:34:57.041Z,51.30
2019-05-05T15:37:27.055Z,51.20
2019-05-05T15:39:57.490Z,50.10
2019-05-05T15:42:28.344Z,50.20
2019-05-05T15:44:58.200Z,51.60
2019-05-05T15:47:28.728Z,52.70
2019-05-05T15:50:00.777Z,53.20
2019-05-05T15:52:34.719Z,54.00
2019-05-05T15:55:08.887Z,54.90
2019-05-05T15:57:51.819Z,55.60
2019-05-05T16:00:22.546Z,56.30
2019-05-05T16:02:54.734Z,55.70
2019-05-05T16:05:24.404Z,56.80
2019-05-05T16:08:05.943Z,57.70
2019-05-05T16:10:46.638Z,57.70
2019-05-05T16:13:19.790Z,56.70
2019-05-05T16:16:07.486Z,56.50
2019-05-05T16:19:05.571Z,62.80
2019-05-05T16:21:39.256Z,59.10
2019-05-05T16:24:14.693Z,57.60
2019-05-05T16:26:44.543Z,57.30
2019-05-05T16:29:29.851Z,56.70
2019-05-05T16:32:19.621Z,57.00
2019-05-05T16:34:41.973Z,57.90
2019-05-05T16:37:14.306Z,57.50
2019-05-05T16:40:31.163Z,57.00
2019-05-05T16:51:07.350Z,55.30
2019-05-05T16:57:51.009Z,53.50
2019-05-05T17:04:14.295Z,52.10
2019-05-05T17:06:48.593Z,51.10
2019-05-05T17:09:18.182Z,52.80
2019-05-05T17:12:06.947Z,52.50
2019-05-05T17:14:45.761Z,50.80
2019-05-05T17:17:34.093Z,49.40
2019-05-05T17:20:07.322Z,50.00
2019-05-05T17:22:48.511Z,52.30
2019-05-05T17:25:18.111Z,47.90
2019-05-05T17:27:50.927Z,48.90
2019-05-05T17:30:19.057Z,49.60
2019-05-05T17:32:48.699Z,50.80
2019-05-05T17:35:18.285Z,50.80
2019-05-05T17:37:47.981Z,50.10
2019-05-05T17:40:24.415Z,49.20
2019-05-05T17:43:25.158Z,49.60
2019-05-05T17:46:00.232Z,50.30
2019-05-05T17:48:36.507Z,50.30
2019-05-05T17:51:34.287Z,50.70
2019-05-05T17:54:25.948Z,51.20
2019-05-05T17:56:56.687Z,51.40
2019-05-05T17:59:26.290Z,51.60
2019-05-05T18:01:55.943Z,52.00
2019-05-05T18:04:25.600Z,52.90
2019-05-05T18:07:04.775Z,53.50
2019-05-05T18:09:53.950Z,53.90
2019-05-05T18:12:38.790Z,54.10
2019-05-05T18:15:10.589Z,54.40
2019-05-05T18:17:40.177Z,54.10
2019-05-05T18:20:09.815Z,54.00
2019-05-05T18:22:39.412Z,54.10
2019-05-05T18:25:09.172Z,54.80
2019-05-05T18:27:38.814Z,55.10
2019-05-05T18:30:08.467Z,55.50
2019-05-05T18:32:38.131Z,55.50
2019-05-05T18:35:07.745Z,55.60
2019-05-05T18:37:37.356Z,56.20
2019-05-05T18:40:08.058Z,56.10
2019-05-05T18:42:37.732Z,55.40
2019-05-05T18:45:10.482Z,53.70
2019-05-05T18:47:40.117Z,53.90
2019-05-05T18:50:09.805Z,53.70
2019-05-05T18:52:45.070Z,53.40
2019-05-05T18:55:15.031Z,53.10
2019-05-05T18:57:44.687Z,53.30
2019-05-05T19:00:15.884Z,53.10
2019-05-05T19:02:54.967Z,53.40
2019-05-05T19:05:53.537Z,53.70
2019-05-05T19:08:26.061Z,53.90
2019-05-05T19:10:55.659Z,54.40
2019-05-05T19:13:26.286Z,54.20
2019-05-05T19:15:56.025Z,54.20
2019-05-05T19:18:25.559Z,54.50
2019-05-05T19:21:00.726Z,55.60
2019-05-05T19:23:30.347Z,54.70
2019-05-05T19:26:00.930Z,54.50
2019-05-05T19:28:41.241Z,54.40
2019-05-05T19:31:04.205Z,54.40
2019-05-05T19:33:36.349Z,54.60
2019-05-05T19:36:07.187Z,54.70
2019-05-05T19:38:37.087Z,55.30
2019-05-05T19:41:09.313Z,55.40
2019-05-05T19:43:54.376Z,55.70
2019-05-05T19:46:54.805Z,55.90
2019-05-05T19:49:24.673Z,56.00
2019-05-05T19:51:56.381Z,56.10
2019-05-05T19:54:26.067Z,56.30
2019-05-05T19:56:55.792Z,56.60
2019-05-05T19:59:25.481Z,56.90
2019-05-05T20:01:56.274Z,56.80
2019-05-05T20:04:26.008Z,57.00
2019-05-05T20:06:55.635Z,57.00
2019-05-05T20:09:27.333Z,57.30
2019-05-05T20:11:57.151Z,57.40
2019-05-05T20:14:26.998Z,57.50
2019-05-05T20:17:04.619Z,57.70
2019-05-05T20:19:39.363Z,57.80
2019-05-05T20:22:09.415Z,58.00
2019-05-05T20:24:39.166Z,57.80
2019-05-05T20:27:10.876Z,57.80
2019-05-05T20:29:41.555Z,57.80
2019-05-05T20:32:11.251Z,57.80
2019-05-05T20:34:54.134Z,57.70
2019-05-05T20:37:29.916Z,57.20
2019-05-05T20:40:00.716Z,57.40
2019-05-05T20:42:33.626Z,57.60
2019-05-05T20:45:04.162Z,57.20
2019-05-05T20:47:37.614Z,56.90
2019-05-05T20:50:08.309Z,57.10
2019-05-05T20:52:38.928Z,57.10
2019-05-05T20:55:08.536Z,57.30
2019-05-05T20:57:38.219Z,57.60
2019-05-05T21:00:09.626Z,57.60
2019-05-05T21:02:43.447Z,57.70
2019-05-05T21:05:14.579Z,58.10
2019-05-05T21:07:47.048Z,58.20
2019-05-05T21:10:17.672Z,58.70
2019-05-05T21:12:50.940Z,59.30
2019-05-05T21:15:21.092Z,60.30
2019-05-05T21:17:51.129Z,61.30
2019-05-05T21:20:24.135Z,62.10
2019-05-05T21:23:06.691Z,62.50
2019-05-05T21:25:39.696Z,62.80
2019-05-05T21:28:09.255Z,63.10
2019-05-05T21:30:41.534Z,63.80
2019-05-05T21:33:10.242Z,64.20
2019-05-05T21:35:39.855Z,64.50
2019-05-05T21:38:09.452Z,64.70
2019-05-05T21:40:39.057Z,64.50
2019-05-05T21:43:08.766Z,64.80
2019-05-05T21:45:38.466Z,65.60
2019-05-05T21:48:09.095Z,66.10
2019-05-05T21:50:43.690Z,66.00
2019-05-05T21:53:40.447Z,66.50
2019-05-05T21:56:46.358Z,66.90
2019-05-05T21:59:15.905Z,66.90
2019-05-05T22:01:49.168Z,67.10
2019-05-05T22:04:16.863Z,67.20
2019-05-05T22:06:46.483Z,66.90
2019-05-05T22:09:16.147Z,66.80
2019-05-05T22:11:45.695Z,67.00
2019-05-05T22:14:15.282Z,67.10
2019-05-05T22:16:44.902Z,65.70
2019-05-05T22:19:16.403Z,64.60
2019-05-05T22:21:50.481Z,64.30
2019-05-05T22:24:21.016Z,64.70
2019-05-05T22:26:50.533Z,65.10
2019-05-05T22:29:20.154Z,65.10
2019-05-05T22:31:49.826Z,64.90
2019-05-05T22:34:19.393Z,65.40
2019-05-05T22:36:49.972Z,65.30
2019-05-05T22:39:19.668Z,64.90
2019-05-05T22:41:49.203Z,64.60
2019-05-05T22:44:18.733Z,65.30
2019-05-05T22:46:48.327Z,65.40
2019-05-05T22:49:17.919Z,64.60
2019-05-05T22:51:47.595Z,64.70
2019-05-05T22:54:17.196Z,65.00
2019-05-05T22:56:46.744Z,65.30
2019-05-05T22:59:16.342Z,65.60
2019-05-05T23:01:45.923Z,65.80
2019-05-05T23:04:43.832Z,65.80
2019-05-05T23:07:19.502Z,66.00
2019-05-05T23:09:49.191Z,66.20
2019-05-05T23:12:18.739Z,66.30
2019-05-05T23:14:49.331Z,66.30
2019-05-05T23:17:36.710Z,66.30
2019-05-05T23:20:13.508Z,66.00
2019-05-05T23:22:56.863Z,65.70
2019-05-05T23:25:31.491Z,66.00
2019-05-05T23:28:01.043Z,65.90
2019-05-05T23:30:39.553Z,65.60
2019-05-05T23:33:01.999Z,65.60
2019-05-05T23:35:31.673Z,65.10
2019-05-05T23:38:03.399Z,64.60
2019-05-05T23:40:33.974Z,65.00
2019-05-05T23:43:04.525Z,64.70
2019-05-05T23:45:34.259Z,65.20
2019-05-05T23:48:03.871Z,65.40
2019-05-05T23:50:33.786Z,65.10
2019-05-05T23:53:03.505Z,64.90
2019-05-05T23:55:34.405Z,65.40
2019-05-05T23:58:04.075Z,66.30
